Terminal Aerodrome Forecast
Issued by NWS

Home | Current Version | Previous Version | Graphics & Text | Print | Product List | Glossary On
Versions: 1 2 3 4 5 6 7 8 9 10 11 12 13 14 15 16 17 18 19 20
000
FTUS43 KBIS 291100
TAFMOT
TAF
KMOT 291128Z 2912/3012 31012G17KT P6SM BKN018 OVC024
     FM291600 33010KT P6SM SCT015 BKN025
      TEMPO 2922/3002 VRB03KT SCT015 BKN150
     FM300200 13004KT P6SM SCT015 BKN120=

USA.gov is the U.S. government's official web portal to all federal, state and local government web resources and services.